This is the latest recevied weather packets stored in our database for station/object KC8JWT. If no packets are shown the sender has not sent any weather packets the latest 10 day(s).
| Time | Temp. | Humidity | Pressure | Rain* | Wind** | Luminosity | Snow |
|---|---|---|---|---|---|---|---|
| 1777412793 | 26.11° C | 63% | 1013.3 hPa | 0 mm | - | 186 W/m² | - |
| 1777412492 | 26.11° C | 64% | 1012.9 hPa | 0 mm | - | 353 W/m² | - |
| 1777412190 | 26.11° C | 64% | 1013.3 hPa | 0 mm | - | 428 W/m² | - |
| 1777411886 | 25° C | 68% | 1013.1 hPa | 0 mm | - | 572 W/m² | - |
| 1777411585 | 25° C | 68% | 1013.1 hPa | 0 mm | - | 146 W/m² | - |
| 1777411281 | 26.11° C | 65% | 1013.1 hPa | 0 mm | - | 153 W/m² | - |
| 1777410974 | 26.11° C | 67% | 1013.3 hPa | 0 mm | - | 510 W/m² | - |
| 1777410674 | 25° C | 67% | 1013.5 hPa | 0 mm | - | 628 W/m² | - |
| 1777410369 | 25° C | 68% | 1013.1 hPa | 0 mm | - | 147 W/m² | - |
| 1777410069 | 25.56° C | 67% | 1012.9 hPa | 0 mm | - | 134 W/m² | - |
| 1777409769 | 25° C | 69% | 1012.9 hPa | 0 mm | - | 601 W/m² | - |
| 1777409464 | 25° C | 68% | 1013.2 hPa | 0 mm | - | 325 W/m² | - |
| 1777409160 | 24.44° C | 68% | 1013.2 hPa | 0 mm | - | 158 W/m² | - |
| 1777408857 | 24.44° C | 68% | 1013.4 hPa | 0 mm | - | 734 W/m² | - |
| 1777408553 | 24.44° C | 67% | 1013 hPa | 0 mm | - | 239 W/m² | - |
| 1777408253 | 24.44° C | 67% | 1013 hPa | 0 mm | - | 170 W/m² | - |
| 1777407949 | 25° C | 67% | 1013 hPa | 0 mm | - | 221 W/m² | - |
| 1777407646 | 25.56° C | 65% | 1013.1 hPa | 0 mm | - | 633 W/m² | - |
| 1777407346 | 25° C | 67% | 1013.3 hPa | 0 mm | - | 717 W/m² | - |
| 1777407041 | 26.11° C | 65% | 1013.4 hPa | 0 mm | - | 247 W/m² | - |
| 1777406737 | 26.11° C | 67% | 1013.4 hPa | 0 mm | - | 749 W/m² | - |
| 1777406432 | 26.11° C | 69% | 1013.3 hPa | 0 mm | - | 704 W/m² | - |
| 1777406131 | 25.56° C | 70% | 1013.6 hPa | 0 mm | - | 563 W/m² | - |
| 1777405827 | 25.56° C | 72% | 1013.6 hPa | 0 mm | - | 692 W/m² | - |
| 1777405524 | 25.56° C | 71% | 1013.6 hPa | 0 mm | - | 698 W/m² | - |
* Rain latest hour (hover to see other rain measurements)
** Current wind speed in m/s (hover to see current wind gust speed)